KCHA/CHA METAR and TAF weather

Enter ICAO airport designator
Station Type Date Time Source
KCHA METAR 2021/09/16 09:53 UTC NOAA

KCHA 160953Z 33003KT 10SM FEW004 OVC029 21/19 A3002 RMK AO2 SLP159 T02110189


Station Type Date Time Source
KCHA Decoded METAR 2021/09/16 09:53 UTC NOAA

LOVELL FIELD, TN, United States (KCHA) 35-02N 085-12W 210M
Sep 16, 2021 - 05:53 AM EDT / 2021.09.16 0953 UTC
Wind: from the NNW (330 degrees) at 3 MPH (3 KT):0
Visibility: 10 mile(s):0
Sky conditions: overcast
Temperature: 70.0 F (21.1 C)
Dew Point: 66.0 F (18.9 C)
Relative Humidity: 87%
Pressure (altimeter): 30.02 in. Hg (1016 hPa)
ob: KCHA 160953Z 33003KT 10SM FEW004 OVC029 21/19 A3002 RMK AO2 SLP159 T02110189
cycle: 10

Station Type Date Time Source
KCHA TAF 2021/09/16 07:58 UTC NOAA

TAF
AMD KCHA 160656Z 1607/1706 VRB03KT P6SM SCT020 BKN030
FM160900 00000KT P6SM OVC025
FM161500 13004KT P6SM SCT025 BKN035 PROB30 1618/1624 4SM TSRA BR OVC015CB

Example: see airport list